createdAt,value
2023-07-15T07:49:02.456Z,0.75
2023-07-15T07:52:02.346Z,1.22
2023-07-15T07:53:03.065Z,0.75
2023-07-15T07:54:03.365Z,1.22
2023-07-15T07:55:04.049Z,0.75
2023-07-15T07:57:02.752Z,0.75
2023-07-15T07:59:02.444Z,0.75
2023-07-15T08:00:04.963Z,1.22
2023-07-15T08:02:03.199Z,1.33
2023-07-15T08:04:03.439Z,1.33
2023-07-15T08:06:03.258Z,1.33
2023-07-15T08:08:03.716Z,1.33
2023-07-15T08:10:04.054Z,0.18
2023-07-15T08:12:02.758Z,1.33
2023-07-15T08:15:04.143Z,0.24
2023-07-15T08:16:03.519Z,0.25
2023-07-15T08:17:03.306Z,0.24
2023-07-15T08:19:03.045Z,0.24
2023-07-15T08:21:03.088Z,0.24
2023-07-15T08:23:02.423Z,0.24
2023-07-15T08:24:03.272Z,0.65
2023-07-15T08:25:03.424Z,0.21
2023-07-15T08:27:02.913Z,0.21
2023-07-15T08:28:02.793Z,0.65
2023-07-15T08:30:03.229Z,0.65
2023-07-15T08:32:02.539Z,0.65
2023-07-15T08:33:03.160Z,0.56
2023-07-15T08:34:03.142Z,0.65
2023-07-15T08:35:03.012Z,0.56
2023-07-15T08:37:02.765Z,0.56
2023-07-15T08:38:02.709Z,0.65
2023-07-15T08:39:02.706Z,0.56
2023-07-15T08:40:03.149Z,0.19
2023-07-15T08:42:02.590Z,0.19
2023-07-15T08:43:02.337Z,0.19
2023-07-15T08:44:03.433Z,0.19
2023-07-15T08:46:03.216Z,0.19
2023-07-15T08:48:03.109Z,0.19
2023-07-15T08:50:03.634Z,0.42
2023-07-15T08:52:02.763Z,0.42
2023-07-15T08:53:02.695Z,0.79
2023-07-15T08:54:03.042Z,0.42
2023-07-15T08:55:03.024Z,0.79
2023-07-15T08:56:02.974Z,0.42
2023-07-15T08:57:02.568Z,0.79
2023-07-15T08:59:02.444Z,0.79
2023-07-15T09:00:04.821Z,0.42
2023-07-15T09:02:03.018Z,1.13
2023-07-15T09:03:03.202Z,1.13
2023-07-15T09:05:03.465Z,1.13
2023-07-15T09:07:02.691Z,1.13
2023-07-15T09:08:02.849Z,1
2023-07-15T09:09:02.808Z,1.13
2023-07-15T09:10:03.838Z,1
2023-07-15T09:12:02.450Z,1
2023-07-15T09:13:02.815Z,2.13
2023-07-15T09:14:02.858Z,1
2023-07-15T09:15:03.397Z,2.13
2023-07-15T09:16:03.530Z,4.86
2023-07-15T09:18:02.885Z,4.86
2023-07-15T09:19:03.166Z,2.13
2023-07-15T09:20:04.143Z,4.86
2023-07-15T09:22:02.945Z,4.86
2023-07-15T09:23:03.450Z,2.73
2023-07-15T09:25:03.577Z,2.73
2023-07-15T09:26:05.331Z,4.86
2023-07-15T09:27:27.469Z,2.73
2023-07-15T09:29:02.355Z,2.73
2023-07-15T09:30:04.357Z,3.65
2023-07-15T09:32:03.006Z,3.65
2023-07-15T09:34:03.391Z,3.65
2023-07-15T09:35:03.338Z,3.16
2023-07-15T09:36:03.482Z,3.65
2023-07-15T09:38:02.702Z,2.43
2023-07-15T09:39:03.317Z,2.43
2023-07-15T09:40:04.627Z,2.43
2023-07-15T09:42:02.992Z,2.43
2023-07-15T09:43:02.915Z,2.43
2023-07-15T09:45:03.370Z,2.43
2023-07-15T09:47:03.205Z,0.69
2023-07-15T09:48:04.220Z,0.71
2023-07-15T09:50:03.805Z,0.71
2023-07-15T09:52:02.767Z,0.71
2023-07-15T09:53:02.677Z,0.69
2023-07-15T09:54:02.918Z,0.71
2023-07-15T09:55:03.481Z,0.69
2023-07-15T09:57:03.840Z,1.77
2023-07-15T09:59:02.887Z,1.77
2023-07-15T10:00:04.876Z,7.49
2023-07-15T10:02:03.412Z,7.49
2023-07-15T10:04:03.195Z,7.49
2023-07-15T10:05:03.373Z,1.77
2023-07-15T10:07:02.496Z,1.77
2023-07-15T10:08:02.404Z,7.49
2023-07-15T10:09:04.100Z,3.65
2023-07-15T10:11:02.631Z,3.65
2023-07-15T10:12:03.003Z,3.28
2023-07-15T10:14:03.077Z,3.28
2023-07-15T10:15:03.616Z,3.65
2023-07-15T10:17:02.422Z,3.65
2023-07-15T10:18:03.276Z,3.28
2023-07-15T10:20:03.475Z,3.28
2023-07-15T10:22:03.153Z,1.65
2023-07-15T10:24:03.166Z,1.65
2023-07-15T10:25:03.235Z,1.65
2023-07-15T10:26:03.290Z,1.65
2023-07-15T10:28:03.133Z,1.65
2023-07-15T10:30:03.505Z,1.65
2023-07-15T10:32:02.885Z,1.65
2023-07-15T10:33:03.473Z,0.86
2023-07-15T10:35:03.041Z,0.86
2023-07-15T10:36:03.432Z,0.93
2023-07-15T10:38:04.383Z,0.93
2023-07-15T10:40:03.729Z,0.93
2023-07-15T10:42:02.541Z,0.93
2023-07-15T10:43:02.484Z,0.93
2023-07-15T10:44:02.583Z,0.93
2023-07-15T10:45:03.254Z,0.93
2023-07-15T10:46:03.260Z,0.93
2023-07-15T10:48:03.282Z,0.93
2023-07-15T10:49:03.328Z,1.78
2023-07-15T10:50:03.858Z,1.65
2023-07-15T10:52:03.144Z,1.65
2023-07-15T10:53:03.144Z,1.18
2023-07-15T10:54:03.640Z,1.65
2023-07-15T10:56:02.704Z,1.65
2023-07-15T10:57:02.505Z,1.18
2023-07-15T10:58:02.485Z,1.65
2023-07-15T11:00:09.639Z,0.52
2023-07-15T11:02:02.881Z,0.52
2023-07-15T11:03:02.919Z,0.7
2023-07-15T11:04:03.053Z,0.52
2023-07-15T11:05:03.309Z,0.7
2023-07-15T11:07:03.159Z,0.7
2023-07-15T11:09:03.420Z,0.7
2023-07-15T11:10:04.485Z,0.52
2023-07-15T11:12:03.294Z,0.36
2023-07-15T11:14:02.647Z,0.36
2023-07-15T11:15:03.217Z,0.38
2023-07-15T11:17:03.062Z,0.38
2023-07-15T11:18:03.306Z,0.36
2023-07-15T11:20:03.694Z,0.36
2023-07-15T11:22:03.707Z,0.95
2023-07-15T11:24:02.984Z,0.95
2023-07-15T11:25:03.767Z,0.87
2023-07-15T11:27:02.736Z,0.87
2023-07-15T11:28:02.814Z,0.95
2023-07-15T11:29:03.071Z,0.87
2023-07-15T11:30:03.784Z,0.95
2023-07-15T11:32:02.450Z,0.95
2023-07-15T11:34:02.353Z,0.13
2023-07-15T11:38:03.166Z,0.13
2023-07-15T11:40:06.766Z,0.13
2023-07-15T11:42:02.505Z,0.13
2023-07-15T11:44:02.818Z,0.13
2023-07-15T13:22:02.313Z,0.41
2023-07-15T13:29:02.272Z,1.54
2023-07-15T13:30:04.035Z,0.41
2023-07-15T13:31:04.354Z,1.54
2023-07-15T13:33:02.386Z,1.54
2023-07-15T13:34:02.592Z,1.21
2023-07-15T13:35:02.942Z,1.54
2023-07-15T13:36:03.051Z,1.21
2023-07-15T13:38:02.665Z,1.21
2023-07-15T13:40:04.364Z,1.21
2023-07-15T13:42:02.799Z,1.21
2023-07-15T13:43:03.015Z,0.62
2023-07-15T13:44:02.942Z,1.21
2023-07-15T13:45:03.675Z,0.62
2023-07-15T13:47:02.196Z,0.62
2023-07-15T13:48:03.199Z,0.45
2023-07-15T13:50:05.011Z,0.24
2023-07-15T13:51:05.997Z,0.49
2023-07-15T13:53:03.226Z,0.49
2023-07-15T13:54:03.395Z,0.24
2023-07-15T13:55:03.903Z,0.24
2023-07-15T13:57:04.402Z,0.24
2023-07-15T13:59:03.370Z,0.24
2023-07-15T14:32:04.654Z,0.35
2023-07-15T14:34:02.390Z,0.35
2023-07-15T14:35:02.609Z,0.45
2023-07-15T14:36:03.060Z,0.35
2023-07-15T14:38:03.020Z,0.35
2023-07-15T14:39:03.375Z,0.45
2023-07-15T14:40:05.227Z,0.35
2023-07-15T14:43:02.996Z,0.45
2023-07-15T14:44:03.241Z,0.22
2023-07-15T14:49:03.165Z,0.22
2023-07-15T14:51:03.216Z,0.22
2023-07-15T18:57:23.275Z,0.16
2023-07-15T18:59:03.274Z,0.16
2023-07-15T19:00:04.433Z,0.16
2023-07-15T19:02:02.509Z,0.16
2023-07-15T19:03:02.735Z,0.16
2023-07-15T19:04:03.533Z,0.16
2023-07-15T19:06:02.649Z,0.16
2023-07-15T19:07:03.055Z,0.16
2023-07-15T19:20:04.672Z,0.21
2023-07-15T19:22:03.837Z,0.21
2023-07-15T19:24:02.535Z,0.21
2023-07-15T19:25:02.855Z,0.21
2023-07-15T19:26:03.227Z,0.21
2023-07-15T19:27:03.836Z,0.21
2023-07-15T19:29:02.520Z,0.52
2023-07-15T19:30:02.699Z,0.52
2023-07-15T19:31:03.491Z,0.31
2023-07-15T19:33:03.311Z,0.31
2023-07-15T19:35:02.589Z,0.31
2023-07-15T19:36:02.474Z,0.52
2023-07-15T19:38:03.350Z,0.52
2023-07-15T19:39:08.211Z,0.31
2023-07-15T19:41:02.853Z,0.31
2023-07-15T22:28:03.464Z,0.35
2023-07-15T22:30:04.536Z,0.35
2023-07-15T22:32:03.177Z,0.35
2023-07-15T22:34:03.008Z,0.35
2023-07-15T22:35:03.337Z,0.42
2023-07-15T22:36:03.257Z,0.35
2023-07-15T22:38:03.120Z,0.35
2023-07-15T22:39:03.376Z,0.42
2023-07-15T22:40:04.272Z,0.15
2023-07-15T22:42:03.256Z,0.15
2023-07-15T22:43:03.864Z,0.42
2023-07-15T22:45:03.624Z,0.21
2023-07-15T22:47:02.558Z,0.21
2023-07-15T22:48:02.401Z,0.15
2023-07-15T22:49:02.649Z,0.21
2023-07-15T22:50:03.044Z,0.3
2023-07-15T22:51:02.941Z,0.33
2023-07-15T22:52:03.601Z,0.3
2023-07-15T22:54:03.130Z,0.3
2023-07-15T22:55:03.587Z,0.33
2023-07-15T22:57:02.896Z,0.33
2023-07-15T22:58:03.027Z,0.29
2023-07-15T22:59:03.283Z,0.29
2023-07-15T23:01:02.419Z,0.29
2023-07-15T23:02:02.446Z,0.29
2023-07-15T23:03:02.918Z,0.29
2023-07-15T23:04:03.316Z,0.29
2023-07-15T23:05:03.769Z,0.29
2023-07-15T23:07:02.453Z,0.29
2023-07-15T23:08:02.824Z,0.29
2023-07-15T23:09:07.614Z,0.29
2023-07-15T23:11:03.029Z,0.28
2023-07-15T23:12:03.365Z,0.27
2023-07-15T23:13:03.387Z,0.28
2023-07-15T23:14:03.773Z,0.27
2023-07-15T23:16:24.366Z,0.27
2023-07-15T23:18:03.199Z,0.27
2023-07-15T23:20:04.088Z,0.27
2023-07-15T23:23:18.063Z,0.24
2023-07-15T23:25:03.428Z,0.24
2023-07-15T23:27:03.037Z,0.24
